sensor_id;sensor_type;location;lat;lon;timestamp;P1;durP1;ratioP1;P2;durP2;ratioP2
72408;SDS011;60402;48.082;11.628;2022-11-10T00:00:03;2.20;;;1.08;;
72408;SDS011;60402;48.082;11.628;2022-11-10T00:02:30;2.10;;;1.15;;
72408;SDS011;60402;48.082;11.628;2022-11-10T00:04:55;3.03;;;1.30;;
72408;SDS011;60402;48.082;11.628;2022-11-10T00:07:24;2.22;;;0.90;;
72408;SDS011;60402;48.082;11.628;2022-11-10T00:09:50;2.90;;;0.90;;
72408;SDS011;60402;48.082;11.628;2022-11-10T00:12:16;3.15;;;1.10;;
72408;SDS011;60402;48.082;11.628;2022-11-10T00:14:43;2.22;;;1.00;;
72408;SDS011;60402;48.082;11.628;2022-11-10T00:17:27;3.38;;;1.02;;
72408;SDS011;60402;48.082;11.628;2022-11-10T00:19:52;1.38;;;0.70;;
72408;SDS011;60402;48.082;11.628;2022-11-10T00:22:17;3.60;;;1.10;;
72408;SDS011;60402;48.082;11.628;2022-11-10T00:24:43;1.98;;;1.00;;
72408;SDS011;60402;48.082;11.628;2022-11-10T00:27:08;2.83;;;0.90;;
72408;SDS011;60402;48.082;11.628;2022-11-10T00:29:34;2.03;;;1.00;;
72408;SDS011;60402;48.082;11.628;2022-11-10T00:31:59;3.63;;;1.20;;
72408;SDS011;60402;48.082;11.628;2022-11-10T00:34:25;2.22;;;1.00;;
72408;SDS011;60402;48.082;11.628;2022-11-10T00:36:50;2.90;;;1.05;;
72408;SDS011;60402;48.082;11.628;2022-11-10T00:39:16;2.63;;;1.15;;
72408;SDS011;60402;48.082;11.628;2022-11-10T00:41:42;1.85;;;0.90;;
72408;SDS011;60402;48.082;11.628;2022-11-10T00:44:07;1.63;;;0.80;;
72408;SDS011;60402;48.082;11.628;2022-11-10T00:46:32;1.77;;;0.75;;
72408;SDS011;60402;48.082;11.628;2022-11-10T00:48:58;2.42;;;1.10;;
72408;SDS011;60402;48.082;11.628;2022-11-10T00:51:26;1.10;;;0.73;;
72408;SDS011;60402;48.082;11.628;2022-11-10T00:53:53;2.35;;;1.50;;
72408;SDS011;60402;48.082;11.628;2022-11-10T00:56:21;1.95;;;0.75;;
72408;SDS011;60402;48.082;11.628;2022-11-10T00:58:47;1.20;;;0.80;;
72408;SDS011;60402;48.082;11.628;2022-11-10T01:01:13;1.45;;;0.70;;
72408;SDS011;60402;48.082;11.628;2022-11-10T01:03:40;0.90;;;0.50;;
72408;SDS011;60402;48.082;11.628;2022-11-10T01:06:06;1.10;;;0.65;;
72408;SDS011;60402;48.082;11.628;2022-11-10T01:08:35;1.15;;;0.60;;
72408;SDS011;60402;48.082;11.628;2022-11-10T01:11:01;1.30;;;0.65;;
72408;SDS011;60402;48.082;11.628;2022-11-10T01:13:31;1.95;;;0.60;;
72408;SDS011;60402;48.082;11.628;2022-11-10T01:16:01;1.25;;;0.60;;
72408;SDS011;60402;48.082;11.628;2022-11-10T01:18:31;0.98;;;0.52;;
72408;SDS011;60402;48.082;11.628;2022-11-10T01:20:57;1.83;;;0.57;;
72408;SDS011;60402;48.082;11.628;2022-11-10T01:23:22;1.23;;;0.70;;
72408;SDS011;60402;48.082;11.628;2022-11-10T01:25:47;1.33;;;0.70;;
72408;SDS011;60402;48.082;11.628;2022-11-10T01:28:13;1.40;;;1.00;;
72408;SDS011;60402;48.082;11.628;2022-11-10T01:30:38;1.33;;;0.70;;
72408;SDS011;60402;48.082;11.628;2022-11-10T01:33:04;0.70;;;0.50;;
72408;SDS011;60402;48.082;11.628;2022-11-10T01:35:29;1.27;;;0.60;;
72408;SDS011;60402;48.082;11.628;2022-11-10T01:37:55;1.63;;;0.57;;
72408;SDS011;60402;48.082;11.628;2022-11-10T01:40:20;1.00;;;0.50;;
72408;SDS011;60402;48.082;11.628;2022-11-10T01:42:49;1.15;;;0.60;;
72408;SDS011;60402;48.082;11.628;2022-11-10T01:47:55;1.30;;;0.65;;
72408;SDS011;60402;48.082;11.628;2022-11-10T01:50:24;1.50;;;0.57;;
72408;SDS011;60402;48.082;11.628;2022-11-10T01:52:53;1.25;;;0.50;;
72408;SDS011;60402;48.082;11.628;2022-11-10T01:55:21;1.67;;;0.60;;
72408;SDS011;60402;48.082;11.628;2022-11-10T01:57:47;1.02;;;0.40;;
72408;SDS011;60402;48.082;11.628;2022-11-10T02:00:13;0.77;;;0.50;;
72408;SDS011;60402;48.082;11.628;2022-11-10T02:02:43;3.03;;;0.50;;
72408;SDS011;60402;48.082;11.628;2022-11-10T02:05:14;1.42;;;0.57;;
72408;SDS011;60402;48.082;11.628;2022-11-10T02:07:40;1.15;;;0.35;;
72408;SDS011;60402;48.082;11.628;2022-11-10T02:10:12;0.85;;;0.43;;
72408;SDS011;60402;48.082;11.628;2022-11-10T02:12:38;0.73;;;0.40;;
72408;SDS011;60402;48.082;11.628;2022-11-10T02:15:05;2.47;;;0.50;;
72408;SDS011;60402;48.082;11.628;2022-11-10T02:17:32;1.00;;;0.32;;
72408;SDS011;60402;48.082;11.628;2022-11-10T02:19:58;0.88;;;0.40;;
72408;SDS011;60402;48.082;11.628;2022-11-10T02:22:29;1.40;;;0.60;;
72408;SDS011;60402;48.082;11.628;2022-11-10T02:24:55;0.75;;;0.32;;
72408;SDS011;60402;48.082;11.628;2022-11-10T02:27:21;0.95;;;0.47;;
72408;SDS011;60402;48.082;11.628;2022-11-10T02:29:46;0.75;;;0.40;;
72408;SDS011;60402;48.082;11.628;2022-11-10T02:32:12;0.70;;;0.50;;
72408;SDS011;60402;48.082;11.628;2022-11-10T02:34:37;0.38;;;0.35;;
72408;SDS011;60402;48.082;11.628;2022-11-10T02:37:02;1.38;;;0.40;;
72408;SDS011;60402;48.082;11.628;2022-11-10T02:39:28;1.17;;;0.50;;
72408;SDS011;60402;48.082;11.628;2022-11-10T02:41:54;1.50;;;0.50;;
72408;SDS011;60402;48.082;11.628;2022-11-10T02:44:19;0.85;;;0.40;;
72408;SDS011;60402;48.082;11.628;2022-11-10T02:46:45;0.85;;;0.40;;
72408;SDS011;60402;48.082;11.628;2022-11-10T02:49:10;1.45;;;0.30;;
72408;SDS011;60402;48.082;11.628;2022-11-10T02:51:35;0.70;;;0.20;;
72408;SDS011;60402;48.082;11.628;2022-11-10T02:54:01;1.35;;;0.55;;
72408;SDS011;60402;48.082;11.628;2022-11-10T02:56:26;1.02;;;0.50;;
72408;SDS011;60402;48.082;11.628;2022-11-10T02:58:51;2.40;;;0.38;;
72408;SDS011;60402;48.082;11.628;2022-11-10T03:01:16;0.60;;;0.40;;
72408;SDS011;60402;48.082;11.628;2022-11-10T03:03:42;2.40;;;0.40;;
72408;SDS011;60402;48.082;11.628;2022-11-10T03:06:07;0.85;;;0.47;;
72408;SDS011;60402;48.082;11.628;2022-11-10T03:08:32;0.77;;;0.30;;
72408;SDS011;60402;48.082;11.628;2022-11-10T03:10:58;0.77;;;0.50;;
72408;SDS011;60402;48.082;11.628;2022-11-10T03:13:23;1.02;;;0.40;;
72408;SDS011;60402;48.082;11.628;2022-11-10T03:15:49;1.45;;;0.40;;
72408;SDS011;60402;48.082;11.628;2022-11-10T03:18:15;1.50;;;0.52;;
72408;SDS011;60402;48.082;11.628;2022-11-10T03:20:41;2.00;;;0.63;;
72408;SDS011;60402;48.082;11.628;2022-11-10T03:23:07;1.70;;;0.60;;
72408;SDS011;60402;48.082;11.628;2022-11-10T03:25:32;1.13;;;0.65;;
72408;SDS011;60402;48.082;11.628;2022-11-10T03:27:58;1.45;;;0.60;;
72408;SDS011;60402;48.082;11.628;2022-11-10T03:30:23;1.42;;;0.68;;
72408;SDS011;60402;48.082;11.628;2022-11-10T03:32:49;1.48;;;0.63;;
72408;SDS011;60402;48.082;11.628;2022-11-10T03:35:14;2.33;;;0.70;;
72408;SDS011;60402;48.082;11.628;2022-11-10T03:37:40;2.25;;;0.73;;
72408;SDS011;60402;48.082;11.628;2022-11-10T03:40:06;1.83;;;0.80;;
72408;SDS011;60402;48.082;11.628;2022-11-10T03:42:32;1.67;;;0.80;;
72408;SDS011;60402;48.082;11.628;2022-11-10T03:44:57;2.78;;;0.90;;
72408;SDS011;60402;48.082;11.628;2022-11-10T03:47:22;2.90;;;0.90;;
72408;SDS011;60402;48.082;11.628;2022-11-10T03:49:48;3.97;;;0.80;;
72408;SDS011;60402;48.082;11.628;2022-11-10T03:52:13;2.67;;;1.00;;
72408;SDS011;60402;48.082;11.628;2022-11-10T03:54:39;1.45;;;0.70;;
72408;SDS011;60402;48.082;11.628;2022-11-10T03:57:05;2.78;;;0.90;;
72408;SDS011;60402;48.082;11.628;2022-11-10T03:59:30;2.83;;;0.70;;
72408;SDS011;60402;48.082;11.628;2022-11-10T04:01:55;2.05;;;0.82;;
72408;SDS011;60402;48.082;11.628;2022-11-10T04:04:21;1.27;;;0.65;;
72408;SDS011;60402;48.082;11.628;2022-11-10T04:07:05;4.03;;;0.90;;
72408;SDS011;60402;48.082;11.628;2022-11-10T04:09:48;0.98;;;0.75;;
72408;SDS011;60402;48.082;11.628;2022-11-10T04:12:14;2.42;;;0.90;;
72408;SDS011;60402;48.082;11.628;2022-11-10T04:14:57;1.35;;;0.70;;
72408;SDS011;60402;48.082;11.628;2022-11-10T04:17:47;3.95;;;1.10;;
72408;SDS011;60402;48.082;11.628;2022-11-10T04:20:13;2.67;;;0.93;;
72408;SDS011;60402;48.082;11.628;2022-11-10T04:22:39;2.13;;;0.80;;
72408;SDS011;60402;48.082;11.628;2022-11-10T04:25:22;2.53;;;0.88;;
72408;SDS011;60402;48.082;11.628;2022-11-10T04:27:48;1.85;;;0.70;;
72408;SDS011;60402;48.082;11.628;2022-11-10T04:30:13;2.33;;;0.90;;
72408;SDS011;60402;48.082;11.628;2022-11-10T04:32:39;2.35;;;1.08;;
72408;SDS011;60402;48.082;11.628;2022-11-10T04:35:04;2.40;;;1.00;;
72408;SDS011;60402;48.082;11.628;2022-11-10T04:37:29;1.33;;;0.60;;
72408;SDS011;60402;48.082;11.628;2022-11-10T04:39:55;4.93;;;1.13;;
72408;SDS011;60402;48.082;11.628;2022-11-10T04:42:20;3.17;;;1.10;;
72408;SDS011;60402;48.082;11.628;2022-11-10T04:44:45;2.03;;;0.80;;
72408;SDS011;60402;48.082;11.628;2022-11-10T04:47:10;2.85;;;0.80;;
72408;SDS011;60402;48.082;11.628;2022-11-10T04:49:36;2.33;;;0.88;;
72408;SDS011;60402;48.082;11.628;2022-11-10T04:52:01;1.93;;;0.80;;
72408;SDS011;60402;48.082;11.628;2022-11-10T04:54:26;2.70;;;1.00;;
72408;SDS011;60402;48.082;11.628;2022-11-10T04:56:52;4.68;;;1.20;;
72408;SDS011;60402;48.082;11.628;2022-11-10T04:59:17;5.22;;;1.10;;
72408;SDS011;60402;48.082;11.628;2022-11-10T05:01:42;4.25;;;1.08;;
72408;SDS011;60402;48.082;11.628;2022-11-10T05:04:08;3.33;;;0.90;;
72408;SDS011;60402;48.082;11.628;2022-11-10T05:06:33;2.50;;;0.80;;
72408;SDS011;60402;48.082;11.628;2022-11-10T05:08:58;2.80;;;0.88;;
72408;SDS011;60402;48.082;11.628;2022-11-10T05:11:23;3.28;;;0.90;;
72408;SDS011;60402;48.082;11.628;2022-11-10T05:13:49;3.65;;;1.00;;
72408;SDS011;60402;48.082;11.628;2022-11-10T05:16:14;2.05;;;0.80;;
72408;SDS011;60402;48.082;11.628;2022-11-10T05:18:40;2.63;;;1.02;;
72408;SDS011;60402;48.082;11.628;2022-11-10T05:21:05;3.67;;;0.90;;
72408;SDS011;60402;48.082;11.628;2022-11-10T05:23:30;2.63;;;0.90;;
72408;SDS011;60402;48.082;11.628;2022-11-10T05:26:02;4.60;;;0.90;;
72408;SDS011;60402;48.082;11.628;2022-11-10T05:28:28;3.53;;;0.90;;
72408;SDS011;60402;48.082;11.628;2022-11-10T05:30:54;3.40;;;0.90;;
72408;SDS011;60402;48.082;11.628;2022-11-10T05:33:19;1.92;;;0.82;;
72408;SDS011;60402;48.082;11.628;2022-11-10T05:35:44;2.80;;;0.70;;
72408;SDS011;60402;48.082;11.628;2022-11-10T05:38:12;2.17;;;0.93;;
72408;SDS011;60402;48.082;11.628;2022-11-10T05:40:37;2.77;;;0.87;;
72408;SDS011;60402;48.082;11.628;2022-11-10T05:43:02;3.08;;;0.70;;
72408;SDS011;60402;48.082;11.628;2022-11-10T05:45:28;3.60;;;0.77;;
72408;SDS011;60402;48.082;11.628;2022-11-10T05:47:53;3.05;;;0.80;;
72408;SDS011;60402;48.082;11.628;2022-11-10T05:50:19;3.35;;;1.05;;
72408;SDS011;60402;48.082;11.628;2022-11-10T05:52:46;2.38;;;0.80;;
72408;SDS011;60402;48.082;11.628;2022-11-10T05:55:17;4.50;;;0.90;;
72408;SDS011;60402;48.082;11.628;2022-11-10T05:57:44;1.85;;;0.80;;
72408;SDS011;60402;48.082;11.628;2022-11-10T06:00:10;2.05;;;0.73;;
72408;SDS011;60402;48.082;11.628;2022-11-10T06:02:37;2.00;;;0.90;;
72408;SDS011;60402;48.082;11.628;2022-11-10T06:05:03;2.75;;;0.88;;
72408;SDS011;60402;48.082;11.628;2022-11-10T06:07:28;3.05;;;0.90;;
72408;SDS011;60402;48.082;11.628;2022-11-10T06:09:54;2.65;;;0.90;;
72408;SDS011;60402;48.082;11.628;2022-11-10T06:12:19;1.50;;;0.70;;
72408;SDS011;60402;48.082;11.628;2022-11-10T06:14:45;3.38;;;0.98;;
72408;SDS011;60402;48.082;11.628;2022-11-10T06:17:11;2.33;;;0.98;;
72408;SDS011;60402;48.082;11.628;2022-11-10T06:19:36;2.78;;;0.82;;
72408;SDS011;60402;48.082;11.628;2022-11-10T06:22:01;5.53;;;1.27;;
72408;SDS011;60402;48.082;11.628;2022-11-10T06:24:27;4.50;;;1.20;;
72408;SDS011;60402;48.082;11.628;2022-11-10T06:26:52;2.42;;;0.88;;
72408;SDS011;60402;48.082;11.628;2022-11-10T06:29:17;2.53;;;0.70;;
72408;SDS011;60402;48.082;11.628;2022-11-10T06:31:43;2.75;;;0.80;;
72408;SDS011;60402;48.082;11.628;2022-11-10T06:34:10;2.35;;;0.73;;
72408;SDS011;60402;48.082;11.628;2022-11-10T06:36:38;2.35;;;0.90;;
72408;SDS011;60402;48.082;11.628;2022-11-10T06:39:04;2.30;;;0.73;;
72408;SDS011;60402;48.082;11.628;2022-11-10T06:41:30;2.22;;;0.95;;
72408;SDS011;60402;48.082;11.628;2022-11-10T06:43:55;2.78;;;0.80;;
72408;SDS011;60402;48.082;11.628;2022-11-10T06:46:20;3.95;;;1.02;;
72408;SDS011;60402;48.082;11.628;2022-11-10T06:48:46;2.55;;;0.80;;
72408;SDS011;60402;48.082;11.628;2022-11-10T06:51:11;6.03;;;1.10;;
72408;SDS011;60402;48.082;11.628;2022-11-10T06:53:36;3.50;;;0.98;;
72408;SDS011;60402;48.082;11.628;2022-11-10T06:56:01;2.33;;;0.80;;
72408;SDS011;60402;48.082;11.628;2022-11-10T06:58:27;3.47;;;0.90;;
72408;SDS011;60402;48.082;11.628;2022-11-10T07:00:52;2.90;;;0.88;;
72408;SDS011;60402;48.082;11.628;2022-11-10T07:03:17;3.30;;;1.00;;
72408;SDS011;60402;48.082;11.628;2022-11-10T07:05:43;3.03;;;0.90;;
72408;SDS011;60402;48.082;11.628;2022-11-10T07:08:09;3.22;;;1.00;;
72408;SDS011;60402;48.082;11.628;2022-11-10T07:10:43;2.50;;;1.10;;
72408;SDS011;60402;48.082;11.628;2022-11-10T07:13:10;1.20;;;0.80;;
72408;SDS011;60402;48.082;11.628;2022-11-10T07:15:35;2.45;;;1.40;;
72408;SDS011;60402;48.082;11.628;2022-11-10T07:18:01;3.25;;;0.90;;
72408;SDS011;60402;48.082;11.628;2022-11-10T07:20:28;1.63;;;0.80;;
72408;SDS011;60402;48.082;11.628;2022-11-10T07:23:00;3.25;;;1.15;;
72408;SDS011;60402;48.082;11.628;2022-11-10T07:25:30;2.75;;;0.93;;
72408;SDS011;60402;48.082;11.628;2022-11-10T07:28:00;3.92;;;1.02;;
72408;SDS011;60402;48.082;11.628;2022-11-10T07:30:28;2.10;;;0.93;;
72408;SDS011;60402;48.082;11.628;2022-11-10T07:32:58;3.55;;;0.80;;
72408;SDS011;60402;48.082;11.628;2022-11-10T07:35:28;2.60;;;1.15;;
72408;SDS011;60402;48.082;11.628;2022-11-10T07:37:55;2.65;;;1.08;;
72408;SDS011;60402;48.082;11.628;2022-11-10T07:40:22;3.67;;;1.10;;
72408;SDS011;60402;48.082;11.628;2022-11-10T07:42:47;2.65;;;0.85;;
72408;SDS011;60402;48.082;11.628;2022-11-10T07:45:13;1.30;;;0.80;;
72408;SDS011;60402;48.082;11.628;2022-11-10T07:47:38;1.63;;;0.77;;
72408;SDS011;60402;48.082;11.628;2022-11-10T07:50:04;4.05;;;0.90;;
72408;SDS011;60402;48.082;11.628;2022-11-10T07:52:30;2.10;;;1.00;;
72408;SDS011;60402;48.082;11.628;2022-11-10T07:54:55;4.07;;;1.23;;
72408;SDS011;60402;48.082;11.628;2022-11-10T07:57:20;5.40;;;1.55;;
72408;SDS011;60402;48.082;11.628;2022-11-10T07:59:46;4.17;;;1.50;;
72408;SDS011;60402;48.082;11.628;2022-11-10T08:02:11;3.57;;;1.33;;
72408;SDS011;60402;48.082;11.628;2022-11-10T08:04:36;6.15;;;2.42;;
72408;SDS011;60402;48.082;11.628;2022-11-10T08:07:02;6.82;;;2.10;;
72408;SDS011;60402;48.082;11.628;2022-11-10T08:09:27;8.05;;;2.40;;
72408;SDS011;60402;48.082;11.628;2022-11-10T08:11:53;4.88;;;2.45;;
72408;SDS011;60402;48.082;11.628;2022-11-10T08:14:18;5.30;;;1.95;;
72408;SDS011;60402;48.082;11.628;2022-11-10T08:16:43;5.75;;;1.65;;
72408;SDS011;60402;48.082;11.628;2022-11-10T08:19:08;4.63;;;1.73;;
72408;SDS011;60402;48.082;11.628;2022-11-10T08:21:34;3.10;;;1.20;;
72408;SDS011;60402;48.082;11.628;2022-11-10T08:23:59;2.53;;;1.15;;
72408;SDS011;60402;48.082;11.628;2022-11-10T08:26:24;2.92;;;0.85;;
72408;SDS011;60402;48.082;11.628;2022-11-10T08:28:50;4.27;;;1.50;;
72408;SDS011;60402;48.082;11.628;2022-11-10T08:31:15;4.53;;;1.60;;
72408;SDS011;60402;48.082;11.628;2022-11-10T08:33:40;4.87;;;1.60;;
72408;SDS011;60402;48.082;11.628;2022-11-10T08:36:06;5.15;;;1.40;;
72408;SDS011;60402;48.082;11.628;2022-11-10T08:38:31;5.57;;;1.77;;
72408;SDS011;60402;48.082;11.628;2022-11-10T08:40:57;2.78;;;1.10;;
72408;SDS011;60402;48.082;11.628;2022-11-10T08:43:22;2.10;;;0.80;;
72408;SDS011;60402;48.082;11.628;2022-11-10T08:45:47;3.42;;;0.93;;
72408;SDS011;60402;48.082;11.628;2022-11-10T08:48:14;1.45;;;0.93;;
72408;SDS011;60402;48.082;11.628;2022-11-10T08:50:43;3.33;;;0.88;;
72408;SDS011;60402;48.082;11.628;2022-11-10T08:53:10;1.30;;;0.75;;
72408;SDS011;60402;48.082;11.628;2022-11-10T08:58:04;2.35;;;0.60;;
72408;SDS011;60402;48.082;11.628;2022-11-10T09:00:31;1.50;;;0.73;;
72408;SDS011;60402;48.082;11.628;2022-11-10T09:05:51;1.02;;;0.50;;
72408;SDS011;60402;48.082;11.628;2022-11-10T09:08:17;1.67;;;0.70;;
72408;SDS011;60402;48.082;11.628;2022-11-10T09:10:43;2.67;;;0.80;;
72408;SDS011;60402;48.082;11.628;2022-11-10T09:13:10;2.03;;;0.68;;
72408;SDS011;60402;48.082;11.628;2022-11-10T09:15:37;1.30;;;0.80;;
72408;SDS011;60402;48.082;11.628;2022-11-10T09:18:04;3.95;;;0.90;;
72408;SDS011;60402;48.082;11.628;2022-11-10T09:20:30;2.60;;;1.08;;
72408;SDS011;60402;48.082;11.628;2022-11-10T09:23:02;2.50;;;0.70;;
72408;SDS011;60402;48.082;11.628;2022-11-10T09:25:35;2.47;;;0.65;;
72408;SDS011;60402;48.082;11.628;2022-11-10T09:28:01;1.65;;;0.65;;
72408;SDS011;60402;48.082;11.628;2022-11-10T09:30:26;3.60;;;0.80;;
72408;SDS011;60402;48.082;11.628;2022-11-10T09:32:55;3.20;;;0.85;;
72408;SDS011;60402;48.082;11.628;2022-11-10T09:35:22;1.67;;;0.57;;
72408;SDS011;60402;48.082;11.628;2022-11-10T09:37:48;3.30;;;0.75;;
72408;SDS011;60402;48.082;11.628;2022-11-10T09:40:19;2.65;;;0.75;;
72408;SDS011;60402;48.082;11.628;2022-11-10T09:42:49;3.45;;;0.50;;
72408;SDS011;60402;48.082;11.628;2022-11-10T09:47:50;1.97;;;0.70;;
72408;SDS011;60402;48.082;11.628;2022-11-10T09:53:20;2.70;;;0.90;;
72408;SDS011;60402;48.082;11.628;2022-11-10T09:55:49;3.28;;;0.88;;
72408;SDS011;60402;48.082;11.628;2022-11-10T09:58:20;1.77;;;0.73;;
72408;SDS011;60402;48.082;11.628;2022-11-10T10:00:53;2.63;;;0.70;;
72408;SDS011;60402;48.082;11.628;2022-11-10T10:03:30;4.63;;;0.85;;
72408;SDS011;60402;48.082;11.628;2022-11-10T10:05:59;3.40;;;0.68;;
72408;SDS011;60402;48.082;11.628;2022-11-10T10:14:05;2.00;;;0.67;;
72408;SDS011;60402;48.082;11.628;2022-11-10T10:19:04;2.88;;;1.10;;
72408;SDS011;60402;48.082;11.628;2022-11-10T10:24:25;2.25;;;0.80;;
72408;SDS011;60402;48.082;11.628;2022-11-10T10:26:57;4.15;;;1.23;;
72408;SDS011;60402;48.082;11.628;2022-11-10T10:29:26;2.53;;;0.93;;
72408;SDS011;60402;48.082;11.628;2022-11-10T10:31:55;3.58;;;1.15;;
72408;SDS011;60402;48.082;11.628;2022-11-10T10:34:23;4.90;;;1.33;;
72408;SDS011;60402;48.082;11.628;2022-11-10T10:36:52;4.18;;;1.20;;
72408;SDS011;60402;48.082;11.628;2022-11-10T10:42:01;4.40;;;0.90;;
72408;SDS011;60402;48.082;11.628;2022-11-10T10:44:26;3.03;;;1.00;;
72408;SDS011;60402;48.082;11.628;2022-11-10T10:46:55;3.75;;;1.10;;
72408;SDS011;60402;48.082;11.628;2022-11-10T10:49:23;2.10;;;0.70;;
72408;SDS011;60402;48.082;11.628;2022-11-10T10:52:03;2.83;;;0.90;;
72408;SDS011;60402;48.082;11.628;2022-11-10T10:54:40;2.50;;;0.65;;
72408;SDS011;60402;48.082;11.628;2022-11-10T10:57:18;3.75;;;1.00;;
72408;SDS011;60402;48.082;11.628;2022-11-10T11:05:12;7.45;;;2.03;;
72408;SDS011;60402;48.082;11.628;2022-11-10T11:07:38;4.70;;;1.63;;
72408;SDS011;60402;48.082;11.628;2022-11-10T11:10:16;8.60;;;2.40;;
72408;SDS011;60402;48.082;11.628;2022-11-10T11:12:45;4.15;;;1.38;;
72408;SDS011;60402;48.082;11.628;2022-11-10T11:15:12;7.93;;;1.90;;
72408;SDS011;60402;48.082;11.628;2022-11-10T11:17:53;7.00;;;2.45;;
72408;SDS011;60402;48.082;11.628;2022-11-10T11:25:43;2.60;;;0.70;;
72408;SDS011;60402;48.082;11.628;2022-11-10T11:28:25;3.97;;;0.90;;
72408;SDS011;60402;48.082;11.628;2022-11-10T11:31:17;2.80;;;1.00;;
72408;SDS011;60402;48.082;11.628;2022-11-10T11:33:48;3.17;;;1.27;;
72408;SDS011;60402;48.082;11.628;2022-11-10T11:39:13;2.53;;;0.80;;
72408;SDS011;60402;48.082;11.628;2022-11-10T12:03:35;2.88;;;0.90;;
72408;SDS011;60402;48.082;11.628;2022-11-10T12:08:56;3.35;;;0.82;;
72408;SDS011;60402;48.082;11.628;2022-11-10T12:14:25;4.03;;;0.73;;
72408;SDS011;60402;48.082;11.628;2022-11-10T12:17:39;2.47;;;0.65;;
72408;SDS011;60402;48.082;11.628;2022-11-10T12:22:51;4.78;;;1.27;;
72408;SDS011;60402;48.082;11.628;2022-11-10T12:30:37;3.10;;;0.70;;
72408;SDS011;60402;48.082;11.628;2022-11-10T12:33:07;1.63;;;0.43;;
72408;SDS011;60402;48.082;11.628;2022-11-10T12:35:41;2.83;;;0.70;;
72408;SDS011;60402;48.082;11.628;2022-11-10T12:40:50;1.77;;;0.70;;
72408;SDS011;60402;48.082;11.628;2022-11-10T12:46:05;2.83;;;0.75;;
72408;SDS011;60402;48.082;11.628;2022-11-10T12:48:35;2.42;;;0.73;;
72408;SDS011;60402;48.082;11.628;2022-11-10T12:51:10;3.35;;;0.60;;
72408;SDS011;60402;48.082;11.628;2022-11-10T12:53:44;3.50;;;0.70;;
72408;SDS011;60402;48.082;11.628;2022-11-10T12:56:16;2.50;;;0.70;;
72408;SDS011;60402;48.082;11.628;2022-11-10T12:58:47;1.65;;;0.63;;
72408;SDS011;60402;48.082;11.628;2022-11-10T13:01:13;2.05;;;0.80;;
72408;SDS011;60402;48.082;11.628;2022-11-10T13:03:55;2.05;;;0.60;;
72408;SDS011;60402;48.082;11.628;2022-11-10T13:06:33;2.20;;;0.57;;
72408;SDS011;60402;48.082;11.628;2022-11-10T13:09:04;4.07;;;0.77;;
72408;SDS011;60402;48.082;11.628;2022-11-10T13:11:35;1.58;;;0.68;;
72408;SDS011;60402;48.082;11.628;2022-11-10T13:14:02;3.50;;;0.60;;
72408;SDS011;60402;48.082;11.628;2022-11-10T13:19:46;2.22;;;0.90;;
72408;SDS011;60402;48.082;11.628;2022-11-10T13:22:11;1.63;;;0.70;;
72408;SDS011;60402;48.082;11.628;2022-11-10T13:24:52;1.50;;;0.77;;
72408;SDS011;60402;48.082;11.628;2022-11-10T13:27:56;1.02;;;0.52;;
72408;SDS011;60402;48.082;11.628;2022-11-10T13:35:50;2.92;;;0.73;;
72408;SDS011;60402;48.082;11.628;2022-11-10T13:38:36;3.58;;;0.88;;
72408;SDS011;60402;48.082;11.628;2022-11-10T13:43:52;2.75;;;0.57;;
72408;SDS011;60402;48.082;11.628;2022-11-10T13:46:20;3.35;;;0.90;;
72408;SDS011;60402;48.082;11.628;2022-11-10T13:52:09;3.90;;;0.70;;
72408;SDS011;60402;48.082;11.628;2022-11-10T13:57:40;3.80;;;0.70;;
72408;SDS011;60402;48.082;11.628;2022-11-10T14:00:25;3.85;;;0.60;;
72408;SDS011;60402;48.082;11.628;2022-11-10T14:02:53;3.63;;;1.00;;
72408;SDS011;60402;48.082;11.628;2022-11-10T14:07:56;2.30;;;0.60;;
72408;SDS011;60402;48.082;11.628;2022-11-10T14:10:49;1.73;;;0.50;;
72408;SDS011;60402;48.082;11.628;2022-11-10T14:13:33;2.70;;;0.60;;
72408;SDS011;60402;48.082;11.628;2022-11-10T14:16:10;2.28;;;0.68;;
72408;SDS011;60402;48.082;11.628;2022-11-10T14:18:44;2.05;;;0.93;;
72408;SDS011;60402;48.082;11.628;2022-11-10T14:21:26;2.08;;;0.50;;
72408;SDS011;60402;48.082;11.628;2022-11-10T14:24:02;2.45;;;0.45;;
72408;SDS011;60402;48.082;11.628;2022-11-10T14:26:55;2.38;;;0.57;;
72408;SDS011;60402;48.082;11.628;2022-11-10T14:29:28;2.05;;;0.55;;
72408;SDS011;60402;48.082;11.628;2022-11-10T14:31:55;1.85;;;0.68;;
72408;SDS011;60402;48.082;11.628;2022-11-10T14:34:22;2.83;;;0.60;;
72408;SDS011;60402;48.082;11.628;2022-11-10T14:36:49;1.50;;;0.40;;
72408;SDS011;60402;48.082;11.628;2022-11-10T14:39:16;6.97;;;1.50;;
72408;SDS011;60402;48.082;11.628;2022-11-10T14:41:45;8.63;;;2.33;;
72408;SDS011;60402;48.082;11.628;2022-11-10T14:44:12;11.77;;;2.60;;
72408;SDS011;60402;48.082;11.628;2022-11-10T14:46:43;15.07;;;3.60;;
72408;SDS011;60402;48.082;11.628;2022-11-10T14:49:09;10.45;;;2.50;;
72408;SDS011;60402;48.082;11.628;2022-11-10T14:51:34;8.38;;;2.20;;
72408;SDS011;60402;48.082;11.628;2022-11-10T14:54:00;9.25;;;2.50;;
72408;SDS011;60402;48.082;11.628;2022-11-10T14:56:31;10.00;;;2.78;;
72408;SDS011;60402;48.082;11.628;2022-11-10T14:59:01;6.15;;;2.20;;
72408;SDS011;60402;48.082;11.628;2022-11-10T15:01:30;7.07;;;1.90;;
72408;SDS011;60402;48.082;11.628;2022-11-10T15:04:05;4.00;;;1.70;;
72408;SDS011;60402;48.082;11.628;2022-11-10T15:06:32;4.00;;;1.48;;
72408;SDS011;60402;48.082;11.628;2022-11-10T15:08:58;3.60;;;1.20;;
72408;SDS011;60402;48.082;11.628;2022-11-10T15:11:38;4.18;;;1.25;;
72408;SDS011;60402;48.082;11.628;2022-11-10T15:17:05;3.55;;;0.93;;
72408;SDS011;60402;48.082;11.628;2022-11-10T15:19:51;1.45;;;0.60;;
72408;SDS011;60402;48.082;11.628;2022-11-10T15:22:32;4.72;;;1.40;;
72408;SDS011;60402;48.082;11.628;2022-11-10T15:24:59;3.50;;;1.40;;
72408;SDS011;60402;48.082;11.628;2022-11-10T15:27:31;3.40;;;1.30;;
72408;SDS011;60402;48.082;11.628;2022-11-10T15:29:58;3.95;;;1.50;;
72408;SDS011;60402;48.082;11.628;2022-11-10T15:32:39;7.25;;;2.10;;
72408;SDS011;60402;48.082;11.628;2022-11-10T15:35:07;9.63;;;3.88;;
72408;SDS011;60402;48.082;11.628;2022-11-10T15:37:37;9.77;;;4.20;;
72408;SDS011;60402;48.082;11.628;2022-11-10T15:45:52;9.32;;;3.38;;
72408;SDS011;60402;48.082;11.628;2022-11-10T15:48:26;10.77;;;4.38;;
72408;SDS011;60402;48.082;11.628;2022-11-10T15:54:02;11.25;;;4.85;;
72408;SDS011;60402;48.082;11.628;2022-11-10T15:56:49;7.05;;;3.63;;
72408;SDS011;60402;48.082;11.628;2022-11-10T15:59:32;6.40;;;3.03;;
72408;SDS011;60402;48.082;11.628;2022-11-10T16:02:26;7.38;;;2.85;;
72408;SDS011;60402;48.082;11.628;2022-11-10T16:05:41;8.02;;;2.90;;
72408;SDS011;60402;48.082;11.628;2022-11-10T16:08:42;5.95;;;2.88;;
72408;SDS011;60402;48.082;11.628;2022-11-10T16:11:29;7.28;;;2.90;;
72408;SDS011;60402;48.082;11.628;2022-11-10T16:33:16;5.00;;;1.60;;
72408;SDS011;60402;48.082;11.628;2022-11-10T16:35:53;4.45;;;1.33;;
72408;SDS011;60402;48.082;11.628;2022-11-10T16:43:30;5.40;;;1.90;;
72408;SDS011;60402;48.082;11.628;2022-11-10T16:45:59;7.25;;;2.63;;
72408;SDS011;60402;48.082;11.628;2022-11-10T16:48:33;13.18;;;4.88;;
72408;SDS011;60402;48.082;11.628;2022-11-10T16:51:00;7.50;;;2.95;;
72408;SDS011;60402;48.082;11.628;2022-11-10T16:53:27;6.70;;;2.80;;
72408;SDS011;60402;48.082;11.628;2022-11-10T16:55:54;6.30;;;2.50;;
72408;SDS011;60402;48.082;11.628;2022-11-10T16:58:20;7.55;;;2.25;;
72408;SDS011;60402;48.082;11.628;2022-11-10T17:00:46;7.00;;;2.20;;